logo
Search for airport 
image banner adimage banner adimage banner ad
image banner ad

ED1904 - Bad Kreuznach Krhs. St. Marienwoerth

Located in Bad Kreuznach, Germany

ICAO - , IATA -

Data provided by Airmate  

General information

Coordinates: N49°50'49" E7°51'44"
Elevation is 412 feet MSL.
 
View others Airports in Rhineland-Palatinate

Operational data

Special qualification required
Current time UTC:
Current local time:
Weather at : ETOU - Wiesbaden Aaf ( 40 km )
METAR: ETOU 281255Z AUTO 16003KT 9999 CLR 09/02 A3019 RMK AO2 RAB36E37 SLP229 P0000 T00940023
TAF: TAF ETOU 281300Z 2813/2919 VRB06KT 9999 FEW020 SCT280 QNH3005INS BECMG 2904/2905 VRB06KT 9000 BR SCT006 BKN015 BKN020 QNH2997INS TEMPO 2905/2910 8000 BR BKN006 OVC012 BECMG 2911/2912 VRB06KT 9000 BR FEW006 SCT015 QNH2991INS BECMG 2913/2914 18012KT 9999 NSW FEW030 SCT280 QNH2977INS TX09/2915Z TN00/2906Z
View NOTAMs / SUP AIP / TFR affecting this airport [VIEW]
Communications frequencies: [VIEW]

Runways:

Airport contact information

Address: Bad Kreuznach Germany

Satellite view of ED1904